Time;durP1;ratioP1;P1;durP2;ratioP2;P2;SDS_P1;SDS_P2;PMS_P1;PMS_P2;Temp;Humidity;BMP_temperature;BMP_pressure;BME280_temperature;BME280_humidity;BME280_pressure;Samples;Min_cycle;Max_cycle;Signal;HPM_P1;HPM_P2
2024/03/04 00:01:39;;;;;;;19.40;14.00;;;11.50;99.90;;;;;;6240901;23;20035;-63
2024/03/04 00:04:24;;;;;;;22.23;14.45;;;11.50;99.90;;;;;;6240355;22;20012;-63
2024/03/04 00:07:10;;;;;;;22.95;14.45;;;11.50;99.90;;;;;;6241335;23;20448;-62
2024/03/04 00:09:56;;;;;;;22.48;16.45;;;11.50;99.90;;;;;;6242073;23;20142;-63
2024/03/04 00:12:44;;;;;;;18.92;14.55;;;11.50;99.90;;;;;;6240431;23;20012;-63
2024/03/04 00:15:30;;;;;;;19.65;14.38;;;11.50;99.90;;;;;;6241434;23;20313;-63
2024/03/04 00:18:16;;;;;;;22.75;13.80;;;11.50;99.90;;;;;;6240799;23;20004;-64
2024/03/04 00:21:03;;;;;;;21.38;15.48;;;11.40;99.90;;;;;;6243091;23;20011;-63
2024/03/04 00:23:49;;;;;;;20.58;13.07;;;11.40;99.90;;;;;;6242898;23;20012;-63
2024/03/04 00:26:35;;;;;;;21.70;15.93;;;11.40;99.90;;;;;;6241454;23;20032;-63
2024/03/04 00:29:21;;;;;;;22.52;15.88;;;11.30;99.90;;;;;;6244279;23;20015;-63
2024/03/04 00:32:07;;;;;;;24.45;16.15;;;11.30;99.90;;;;;;6242302;23;20008;-63
2024/03/04 00:34:54;;;;;;;21.90;15.57;;;11.30;99.90;;;;;;6242225;23;20336;-63
2024/03/04 00:37:43;;;;;;;20.85;15.27;;;11.20;99.90;;;;;;6242025;23;20496;-63
2024/03/04 00:40:30;;;;;;;22.88;15.77;;;11.20;99.90;;;;;;6241216;23;20008;-62
2024/03/04 00:43:16;;;;;;;22.80;15.27;;;11.30;99.90;;;;;;6241038;23;20099;-62
2024/03/04 00:46:02;;;;;;;24.90;16.35;;;11.30;99.90;;;;;;6242788;23;20079;-63
2024/03/04 00:48:49;;;;;;;25.30;16.67;;;11.30;99.90;;;;;;6240407;23;20035;-63
2024/03/04 00:51:38;;;;;;;25.10;17.38;;;11.30;99.90;;;;;;6242729;23;20438;-62
2024/03/04 00:54:24;;;;;;;25.50;17.52;;;11.20;99.90;;;;;;6241491;23;20012;-63
2024/03/04 00:57:10;;;;;;;25.25;17.05;;;11.20;99.90;;;;;;6239775;23;20036;-63
2024/03/04 00:59:57;;;;;;;27.65;18.52;;;11.10;99.90;;;;;;6241943;23;20318;-63
2024/03/04 01:02:45;;;;;;;25.08;17.35;;;11.20;99.90;;;;;;6242450;23;20020;-63
2024/03/04 01:05:31;;;;;;;28.30;18.13;;;11.10;99.90;;;;;;6240464;23;20340;-63
2024/03/04 01:08:18;;;;;;;29.20;18.58;;;11.10;99.90;;;;;;6240105;23;20340;-63
2024/03/04 01:11:04;;;;;;;26.08;19.13;;;11.10;99.90;;;;;;6244643;23;20115;-62
2024/03/04 01:13:50;;;;;;;23.27;17.17;;;11.10;99.90;;;;;;6241343;23;20008;-62
2024/03/04 01:16:36;;;;;;;28.05;20.15;;;11.10;99.90;;;;;;6240573;23;20099;-63
2024/03/04 01:19:23;;;;;;;28.10;19.90;;;11.00;99.90;;;;;;6240219;23;20337;-62
2024/03/04 01:22:09;;;;;;;26.23;18.60;;;11.00;99.90;;;;;;6219394;23;20043;-63
2024/03/04 01:24:55;;;;;;;30.20;20.63;;;11.00;99.90;;;;;;6240829;23;20004;-62
2024/03/04 01:27:42;;;;;;;29.75;20.73;;;11.00;99.90;;;;;;6240591;23;20008;-62
2024/03/04 01:30:27;;;;;;;25.17;19.00;;;11.00;99.90;;;;;;6240336;23;20079;-62
2024/03/04 01:33:13;;;;;;;31.70;21.40;;;11.00;99.90;;;;;;6238934;23;20377;-63
2024/03/04 01:36:00;;;;;;;31.08;19.95;;;10.90;99.90;;;;;;6242096;23;20494;-62
2024/03/04 01:38:46;;;;;;;30.40;21.00;;;10.90;99.90;;;;;;6243635;23;20012;-62
2024/03/04 01:41:32;;;;;;;32.88;21.42;;;10.80;99.90;;;;;;6242269;23;20042;-62
2024/03/04 01:44:18;;;;;;;34.83;22.58;;;10.80;99.90;;;;;;6242297;23;20034;-62
2024/03/04 01:47:11;;;;;;;34.33;23.10;;;10.80;99.90;;;;;;6240758;23;20008;-63
2024/03/04 01:49:57;;;;;;;33.67;22.48;;;10.80;99.90;;;;;;6241433;23;20004;-63
2024/03/04 01:52:44;;;;;;;32.47;22.92;;;10.80;99.90;;;;;;6240455;23;20102;-63
2024/03/04 01:55:37;;;;;;;30.02;22.23;;;10.70;99.90;;;;;;6243316;23;20015;-63
2024/03/04 01:58:24;;;;;;;30.30;22.55;;;10.70;99.90;;;;;;6242963;23;20015;-61
2024/03/04 02:01:11;;;;;;;31.83;22.60;;;10.70;99.90;;;;;;6242518;23;20337;-61
2024/03/04 02:03:57;;;;;;;33.13;23.20;;;10.70;99.90;;;;;;6222213;23;20322;-61
2024/03/04 02:06:44;;;;;;;33.38;22.42;;;10.70;99.90;;;;;;6242272;23;20483;-61
2024/03/04 02:09:31;;;;;;;32.03;22.45;;;10.70;99.90;;;;;;6243418;23;20016;-62
2024/03/04 02:12:17;;;;;;;32.45;23.48;;;10.60;99.90;;;;;;6242245;23;20015;-62
2024/03/04 02:15:04;;;;;;;37.72;25.70;;;10.60;99.90;;;;;;6220784;23;20091;-63
2024/03/04 02:17:50;;;;;;;33.80;22.88;;;10.60;99.90;;;;;;6241709;23;20031;-63
2024/03/04 02:20:42;;;;;;;34.17;23.35;;;10.50;99.90;;;;;;6224905;23;20048;-62
2024/03/04 02:23:28;;;;;;;37.40;23.70;;;10.50;99.90;;;;;;6243746;23;20074;-63
2024/03/04 02:26:14;;;;;;;30.98;23.23;;;10.50;99.90;;;;;;6241990;23;20039;-62
2024/03/04 02:29:00;;;;;;;34.88;24.40;;;10.50;99.90;;;;;;6243572;23;20022;-63
2024/03/04 02:31:47;;;;;;;35.53;23.92;;;10.50;99.90;;;;;;6244022;23;20381;-63
2024/03/04 02:34:33;;;;;;;32.83;24.55;;;10.40;99.90;;;;;;6243365;23;20497;-64
2024/03/04 02:37:18;;;;;;;34.20;24.23;;;10.40;99.90;;;;;;6261756;23;20008;-63
2024/03/04 02:40:06;;;;;;;38.42;26.42;;;10.40;99.90;;;;;;6263902;23;20012;-63
2024/03/04 02:42:52;;;;;;;37.45;25.58;;;10.30;99.90;;;;;;6253187;23;20020;-63
2024/03/04 02:45:38;;;;;;;37.33;25.98;;;10.30;99.90;;;;;;6222315;23;20004;-63
2024/03/04 02:48:24;;;;;;;34.30;24.20;;;10.30;99.90;;;;;;6244181;23;20074;-62
2024/03/04 02:51:10;;;;;;;36.80;24.77;;;10.30;99.90;;;;;;6241748;23;20008;-63
2024/03/04 02:53:57;;;;;;;40.10;27.15;;;10.20;99.90;;;;;;6241216;23;20012;-62
2024/03/04 02:56:43;;;;;;;35.60;26.38;;;10.20;99.90;;;;;;6242520;23;20379;-61
2024/03/04 02:59:29;;;;;;;38.00;27.08;;;10.10;99.90;;;;;;6242247;23;20498;-63
2024/03/04 03:02:15;;;;;;;36.60;24.98;;;10.20;99.90;;;;;;6242025;23;20035;-63
2024/03/04 03:05:01;;;;;;;39.95;26.05;;;10.10;99.90;;;;;;6242396;23;20074;-63
2024/03/04 03:07:47;;;;;;;38.08;26.70;;;10.10;99.90;;;;;;6242865;23;20008;-62
2024/03/04 03:10:35;;;;;;;36.00;25.70;;;10.10;99.90;;;;;;6241486;23;20372;-63
2024/03/04 03:13:22;;;;;;;39.67;25.90;;;10.10;99.90;;;;;;6243487;23;20074;-63
2024/03/04 03:16:20;;;;;;;34.42;25.50;;;10.10;99.90;;;;;;6242122;23;20515;-63
2024/03/04 03:19:06;;;;;;;40.05;27.60;;;10.10;99.90;;;;;;6242632;23;20027;-63
2024/03/04 03:21:52;;;;;;;38.53;27.30;;;10.00;99.90;;;;;;6241585;23;20024;-63
2024/03/04 03:24:40;;;;;;;39.67;27.70;;;10.00;99.90;;;;;;6242196;23;20058;-62
2024/03/04 03:27:28;;;;;;;38.22;27.63;;;10.00;99.90;;;;;;6243071;23;20039;-63
2024/03/04 03:30:14;;;;;;;43.08;27.75;;;9.90;99.90;;;;;;6244966;23;20008;-63
2024/03/04 03:33:00;;;;;;;39.72;26.90;;;9.90;99.90;;;;;;6244508;23;20436;-62
2024/03/04 03:35:46;;;;;;;40.17;28.75;;;9.90;99.90;;;;;;6242036;23;20448;-62
2024/03/04 03:38:33;;;;;;;39.15;28.58;;;9.90;99.90;;;;;;6239615;23;20008;-62
2024/03/04 03:41:19;;;;;;;40.83;26.50;;;9.90;99.90;;;;;;6240800;23;20008;-62
2024/03/04 03:44:05;;;;;;;39.95;29.80;;;9.80;99.90;;;;;;6241759;23;20056;-62
2024/03/04 03:46:51;;;;;;;38.92;28.88;;;9.80;99.90;;;;;;6241541;23;20004;-61
2024/03/04 03:49:37;;;;;;;42.70;27.73;;;9.80;99.90;;;;;;6220461;23;20336;-61
2024/03/04 03:52:23;;;;;;;36.83;27.00;;;9.80;99.90;;;;;;6243473;23;20459;-61
2024/03/04 03:55:09;;;;;;;44.42;29.10;;;9.80;99.90;;;;;;6241255;23;20318;-61
2024/03/04 03:57:55;;;;;;;41.67;27.48;;;9.80;99.90;;;;;;6242299;23;20040;-61
2024/03/04 04:00:43;;;;;;;41.90;29.00;;;9.80;99.90;;;;;;6240295;23;20020;-62
2024/03/04 04:03:30;;;;;;;42.95;28.17;;;9.80;99.90;;;;;;6241505;23;20016;-61
2024/03/04 04:06:16;;;;;;;43.75;29.15;;;9.70;99.90;;;;;;6241265;23;20097;-61
2024/03/04 04:09:03;;;;;;;43.90;30.42;;;9.80;99.90;;;;;;6240728;23;20012;-61
2024/03/04 04:11:50;;;;;;;44.60;29.42;;;9.70;99.90;;;;;;6241265;23;20070;-61
2024/03/04 04:14:36;;;;;;;40.15;28.70;;;9.70;99.90;;;;;;6241436;23;20472;-61
2024/03/04 04:17:22;;;;;;;46.22;30.83;;;9.70;99.90;;;;;;6240502;23;20012;-62
2024/03/04 04:20:08;;;;;;;42.53;29.60;;;9.70;99.90;;;;;;6241554;23;20020;-61
2024/03/04 04:22:54;;;;;;;43.05;28.55;;;9.70;99.90;;;;;;6240349;23;20074;-61
2024/03/04 04:25:40;;;;;;;39.85;27.15;;;9.70;99.90;;;;;;6240981;22;20259;-63
2024/03/04 04:28:27;;;;;;;39.50;28.77;;;9.60;99.90;;;;;;6241645;23;20020;-63
2024/03/04 04:31:20;;;;;;;42.63;30.25;;;9.60;99.90;;;;;;6242319;23;20831;-62
2024/03/04 04:34:06;;;;;;;45.35;28.17;;;9.60;99.90;;;;;;6239871;23;20004;-62
2024/03/04 04:36:53;;;;;;;45.10;28.48;;;9.70;99.90;;;;;;6241160;23;20019;-62
2024/03/04 04:39:39;;;;;;;44.30;31.13;;;9.70;99.90;;;;;;6241735;23;20018;-62
2024/03/04 04:42:25;;;;;;;41.30;30.48;;;9.70;99.90;;;;;;6241626;23;20058;-62
2024/03/04 04:45:11;;;;;;;47.80;31.58;;;9.60;99.90;;;;;;6241440;23;20004;-63
2024/03/04 04:47:57;;;;;;;46.85;31.17;;;9.70;99.90;;;;;;6240993;23;20429;-63
2024/03/04 04:50:43;;;;;;;42.33;29.67;;;9.60;99.90;;;;;;6241304;23;20461;-62
2024/03/04 04:53:29;;;;;;;44.60;30.73;;;9.70;99.90;;;;;;6244064;23;20337;-62
2024/03/04 04:56:17;;;;;;;45.90;32.70;;;9.60;99.90;;;;;;6240376;23;20341;-62
2024/03/04 04:59:03;;;;;;;46.15;30.48;;;9.60;99.90;;;;;;6242558;23;20085;-62
2024/03/04 05:01:49;;;;;;;47.35;31.15;;;9.60;99.90;;;;;;6240440;23;20047;-62
2024/03/04 05:04:35;;;;;;;46.92;32.00;;;9.50;99.90;;;;;;6240977;23;20019;-62
2024/03/04 05:07:20;;;;;;;42.95;30.80;;;9.50;99.90;;;;;;6241044;23;20016;-62
2024/03/04 05:10:07;;;;;;;45.85;31.95;;;9.50;99.90;;;;;;6241607;23;20012;-63
2024/03/04 05:12:53;;;;;;;50.75;30.45;;;9.50;99.90;;;;;;6241239;23;20012;-66
2024/03/04 05:15:39;;;;;;;45.13;32.20;;;9.40;99.90;;;;;;6243941;23;20011;-63
2024/03/04 05:18:25;;;;;;;44.03;29.85;;;9.40;99.90;;;;;;6239200;23;20008;-62
2024/03/04 05:21:12;;;;;;;48.25;32.42;;;9.40;99.90;;;;;;6241390;23;20008;-62
2024/03/04 05:23:57;;;;;;;43.20;31.02;;;9.30;99.90;;;;;;6241203;23;20433;-63
2024/03/04 05:26:43;;;;;;;47.95;34.20;;;9.30;99.90;;;;;;6240685;23;20319;-62
2024/03/04 05:29:29;;;;;;;47.10;32.30;;;9.30;99.90;;;;;;6242551;23;20008;-61
2024/03/04 05:32:15;;;;;;;42.67;31.25;;;9.20;99.90;;;;;;6241134;23;20004;-61
2024/03/04 05:35:04;;;;;;;45.20;33.03;;;9.20;99.90;;;;;;6239196;23;20019;-61
2024/03/04 05:37:50;;;;;;;47.67;31.38;;;9.20;99.90;;;;;;6239867;23;20319;-61
2024/03/04 05:40:36;;;;;;;50.05;34.45;;;9.20;99.90;;;;;;6241093;23;20008;-61
2024/03/04 05:43:22;;;;;;;52.97;33.92;;;9.10;99.90;;;;;;6240271;23;20020;-61
2024/03/04 05:46:08;;;;;;;51.25;34.30;;;9.20;99.90;;;;;;6241309;23;20101;-62
2024/03/04 05:48:55;;;;;;;43.22;30.75;;;9.20;99.90;;;;;;6240552;23;20066;-61
2024/03/04 05:51:41;;;;;;;47.72;32.42;;;9.20;99.90;;;;;;6243302;23;20377;-60
2024/03/04 05:54:28;;;;;;;47.88;31.77;;;9.20;99.90;;;;;;6238482;23;20023;-60
2024/03/04 05:57:14;;;;;;;43.05;30.90;;;9.20;99.90;;;;;;6240797;23;20310;-61
2024/03/04 06:00:03;;;;;;;48.58;32.88;;;9.20;99.90;;;;;;6240842;23;20012;-62
2024/03/04 06:02:49;;;;;;;45.88;30.00;;;9.20;99.90;;;;;;6218607;23;20437;-61
2024/03/04 06:05:35;;;;;;;46.13;32.65;;;9.10;99.90;;;;;;6240915;23;20116;-60
2024/03/04 06:08:21;;;;;;;50.05;32.88;;;9.10;99.90;;;;;;6241185;23;20008;-61
2024/03/04 06:11:06;;;;;;;51.78;34.65;;;9.10;99.90;;;;;;6240165;23;20043;-61
2024/03/04 06:13:53;;;;;;;49.78;33.88;;;9.10;99.90;;;;;;6240658;23;20014;-60
2024/03/04 06:16:38;;;;;;;44.05;30.73;;;9.00;99.90;;;;;;6243585;23;20008;-60
2024/03/04 06:19:24;;;;;;;50.28;34.03;;;9.00;99.90;;;;;;6238598;23;20115;-61
2024/03/04 06:22:12;;;;;;;49.63;33.25;;;9.00;99.90;;;;;;6242602;23;20012;-61
2024/03/04 06:24:58;;;;;;;50.10;34.45;;;9.00;99.90;;;;;;6241324;23;20043;-60
2024/03/04 06:27:44;;;;;;;53.92;34.05;;;9.00;99.90;;;;;;6239639;23;20518;-60
2024/03/04 06:30:30;;;;;;;47.47;30.70;;;9.00;99.90;;;;;;6242754;23;20008;-61
2024/03/04 06:33:16;;;;;;;47.25;32.00;;;9.00;99.90;;;;;;6243091;23;20157;-61
2024/03/04 06:36:02;;;;;;;48.00;34.15;;;9.00;99.90;;;;;;6241149;23;20068;-60
2024/03/04 06:38:48;;;;;;;47.92;32.63;;;9.00;99.90;;;;;;6242433;23;20016;-61
2024/03/04 06:41:35;;;;;;;50.35;32.55;;;9.00;99.90;;;;;;6241194;23;20087;-60
2024/03/04 06:44:21;;;;;;;50.80;34.55;;;9.00;99.90;;;;;;6242487;23;20437;-60
2024/03/04 06:47:06;;;;;;;47.55;32.97;;;9.10;99.90;;;;;;6242431;23;20000;-61
2024/03/04 06:49:52;;;;;;;48.38;33.55;;;9.10;99.90;;;;;;6242435;23;20019;-61
2024/03/04 06:52:38;;;;;;;48.35;31.80;;;9.10;99.90;;;;;;6242548;23;20030;-61
2024/03/04 06:55:24;;;;;;;51.25;34.50;;;9.10;99.90;;;;;;6242015;23;20092;-61
2024/03/04 06:58:10;;;;;;;45.05;32.40;;;9.20;99.90;;;;;;6242533;23;20030;-62
2024/03/04 07:00:56;;;;;;;46.40;32.85;;;9.20;99.90;;;;;;6245548;23;20016;-60
2024/03/04 07:03:45;;;;;;;46.03;31.58;;;9.20;99.90;;;;;;6242902;23;20174;-61
2024/03/04 07:06:31;;;;;;;48.40;32.90;;;9.20;99.90;;;;;;6242604;23;20031;-61
2024/03/04 07:09:16;;;;;;;46.42;31.38;;;9.30;99.90;;;;;;6242519;23;20008;-62
2024/03/04 07:12:03;;;;;;;49.10;31.90;;;9.30;99.90;;;;;;6242131;23;20087;-61
2024/03/04 07:14:49;;;;;;;48.53;31.58;;;9.30;99.90;;;;;;6242797;23;20014;-61
2024/03/04 07:17:35;;;;;;;51.70;35.05;;;9.30;99.90;;;;;;6242468;23;20019;-61
2024/03/04 07:20:21;;;;;;;45.58;30.42;;;9.30;99.90;;;;;;6220866;23;20008;-62
2024/03/04 07:23:08;;;;;;;45.50;31.92;;;9.40;99.90;;;;;;6244356;23;20023;-62
2024/03/04 07:25:54;;;;;;;52.20;34.17;;;9.50;99.90;;;;;;6242974;23;20389;-62
2024/03/04 07:28:41;;;;;;;48.33;33.80;;;9.40;99.90;;;;;;6242076;23;20008;-62
2024/03/04 07:31:27;;;;;;;44.92;29.95;;;9.50;99.90;;;;;;6244678;23;20037;-62
2024/03/04 07:34:13;;;;;;;46.40;32.47;;;9.50;99.90;;;;;;6242076;23;20008;-62
2024/03/04 07:36:58;;;;;;;42.75;31.48;;;9.50;99.90;;;;;;6242321;23;20046;-62
2024/03/04 07:39:44;;;;;;;50.22;31.90;;;9.50;99.90;;;;;;6242151;23;20008;-63
2024/03/04 07:42:31;;;;;;;45.35;32.28;;;9.50;99.90;;;;;;6219938;23;20047;-62
2024/03/04 07:45:16;;;;;;;44.90;30.60;;;9.60;99.90;;;;;;6240854;23;20015;-68
2024/03/04 07:48:03;;;;;;;48.88;33.03;;;9.50;99.90;;;;;;6242235;23;20008;-68
2024/03/04 07:50:49;;;;;;;44.60;31.27;;;9.60;99.90;;;;;;6242369;23;20024;-68
2024/03/04 07:53:35;;;;;;;47.30;30.75;;;9.60;99.90;;;;;;6242262;23;20059;-67
2024/03/04 07:56:20;;;;;;;45.00;31.27;;;9.60;99.90;;;;;;6237550;23;20004;-67
2024/03/04 07:59:07;;;;;;;47.30;31.25;;;9.60;99.90;;;;;;6241053;23;20016;-67
2024/03/04 08:01:53;;;;;;;45.92;29.85;;;9.70;99.90;;;;;;6241830;23;20023;-67
2024/03/04 08:04:43;;;;;;;46.83;30.85;;;9.70;99.90;;;;;;6241014;23;20437;-67
2024/03/04 08:07:29;;;;;;;46.40;29.58;;;9.80;99.90;;;;;;6241576;23;20012;-74
2024/03/04 08:10:16;;;;;;;43.47;30.15;;;9.90;99.90;;;;;;6244080;23;20042;-75
2024/03/04 08:13:03;;;;;;;43.08;30.10;;;10.00;99.90;;;;;;6240455;23;20012;-61
2024/03/04 08:15:49;;;;;;;43.67;29.23;;;10.00;99.90;;;;;;6239661;23;20491;-60
2024/03/04 08:18:35;;;;;;;42.75;29.73;;;10.00;99.90;;;;;;6235000;23;20012;-61
2024/03/04 08:21:21;;;;;;;50.15;31.33;;;10.00;99.90;;;;;;6235514;23;20008;-60
2024/03/04 08:24:07;;;;;;;43.92;30.73;;;10.10;99.90;;;;;;6240139;23;20047;-61
2024/03/04 08:26:53;;;;;;;47.78;33.13;;;10.10;99.90;;;;;;6240605;23;20004;-62
2024/03/04 08:29:39;;;;;;;46.05;31.27;;;10.20;99.90;;;;;;6240383;23;20031;-62
2024/03/04 08:32:25;;;;;;;44.90;31.92;;;10.30;99.90;;;;;;6238547;23;20428;-62
2024/03/04 08:35:12;;;;;;;47.80;31.83;;;10.30;99.90;;;;;;6239902;23;20015;-61
2024/03/04 08:37:58;;;;;;;45.58;30.77;;;10.30;99.90;;;;;;6237661;23;20467;-61
2024/03/04 08:40:44;;;;;;;43.53;31.23;;;10.40;99.90;;;;;;6239388;23;20090;-62
2024/03/04 08:43:30;;;;;;;42.70;31.25;;;10.40;99.90;;;;;;6241127;23;20055;-61
2024/03/04 08:46:16;;;;;;;39.85;29.98;;;10.50;99.90;;;;;;6239681;23;20093;-61
2024/03/04 08:49:02;;;;;;;42.22;29.83;;;10.50;99.90;;;;;;6240134;23;20326;-61
2024/03/04 08:51:48;;;;;;;41.95;30.70;;;10.60;99.90;;;;;;6241032;23;20012;-61
2024/03/04 08:54:34;;;;;;;44.67;31.15;;;10.70;99.90;;;;;;6239064;23;20020;-61
2024/03/04 08:57:20;;;;;;;44.38;30.13;;;10.80;99.90;;;;;;6240562;23;20008;-61
2024/03/04 09:00:10;;;;;;;42.28;30.23;;;10.80;99.90;;;;;;6239466;23;20018;-62
2024/03/04 09:02:56;;;;;;;42.35;31.83;;;10.80;99.90;;;;;;6239912;23;20026;-61
2024/03/04 09:05:44;;;;;;;45.50;31.83;;;10.90;99.90;;;;;;6240415;23;20401;-61
2024/03/04 09:08:30;;;;;;;45.00;31.20;;;10.90;99.90;;;;;;6242862;23;20008;-60
2024/03/04 09:11:17;;;;;;;41.83;31.20;;;10.90;99.90;;;;;;6242070;23;20008;-60
2024/03/04 09:14:03;;;;;;;40.42;28.52;;;10.90;99.90;;;;;;6239705;23;20011;-60
2024/03/04 09:16:49;;;;;;;43.60;30.23;;;11.10;99.90;;;;;;6238892;23;20008;-61
2024/03/04 09:19:40;;;;;;;50.05;32.40;;;11.10;99.90;;;;;;6241987;23;20008;-62
2024/03/04 09:22:26;;;;;;;45.97;30.92;;;11.00;99.90;;;;;;6239732;23;20019;-61
2024/03/04 09:25:12;;;;;;;44.08;30.52;;;11.10;99.90;;;;;;6239412;23;20067;-62
2024/03/04 09:27:58;;;;;;;43.88;30.15;;;11.10;99.90;;;;;;6240822;23;20503;-61
2024/03/04 09:30:44;;;;;;;50.08;33.03;;;11.20;99.90;;;;;;6240902;23;20135;-61
2024/03/04 09:33:29;;;;;;;47.88;33.47;;;11.30;99.90;;;;;;6240010;23;20008;-61
2024/03/04 09:36:15;;;;;;;44.20;30.70;;;11.40;99.90;;;;;;6239451;23;20008;-61
2024/03/04 09:39:05;;;;;;;43.00;30.77;;;11.50;99.90;;;;;;6241074;23;20046;-62
2024/03/04 09:41:54;;;;;;;49.38;33.75;;;11.60;99.90;;;;;;6241451;23;20054;-61
2024/03/04 09:44:41;;;;;;;43.03;32.08;;;11.70;99.90;;;;;;6241729;23;20115;-61
2024/03/04 09:47:27;;;;;;;41.95;31.35;;;11.70;99.90;;;;;;6240785;23;20016;-60
2024/03/04 09:50:13;;;;;;;41.63;28.63;;;11.80;99.90;;;;;;6240379;23;20037;-60
2024/03/04 09:53:01;;;;;;;45.25;29.73;;;11.80;99.90;;;;;;6240238;23;20336;-60
2024/03/04 09:55:48;;;;;;;46.45;29.38;;;11.90;99.90;;;;;;6240844;23;20014;-61
2024/03/04 09:58:34;;;;;;;39.42;28.63;;;12.00;99.90;;;;;;6241748;23;20019;-60
2024/03/04 10:01:21;;;;;;;44.42;30.10;;;12.10;99.90;;;;;;6240186;23;20441;-61
2024/03/04 10:04:07;;;;;;;41.75;28.48;;;12.10;99.90;;;;;;6236347;23;20020;-61
2024/03/04 10:06:53;;;;;;;49.03;30.50;;;12.10;99.90;;;;;;6238037;23;20403;-59
2024/03/04 10:09:39;;;;;;;41.70;29.63;;;12.10;99.90;;;;;;6239774;23;20008;-61
2024/03/04 10:12:25;;;;;;;41.45;29.77;;;12.10;99.90;;;;;;6238783;23;20440;-60
2024/03/04 10:15:12;;;;;;;41.45;28.92;;;12.10;99.90;;;;;;6239132;23;20008;-60
2024/03/04 10:18:10;;;;;;;40.42;28.10;;;12.10;99.90;;;;;;6243411;23;20012;-60
2024/03/04 10:20:57;;;;;;;42.70;30.10;;;12.10;99.90;;;;;;6240697;23;20079;-59
2024/03/04 10:23:43;;;;;;;43.33;28.35;;;12.10;99.90;;;;;;6242934;23;20094;-59
2024/03/04 10:26:40;;;;;;;41.95;29.17;;;12.10;99.90;;;;;;6240750;23;20012;-60
2024/03/04 10:29:28;;;;;;;45.88;28.25;;;12.20;99.90;;;;;;6241428;23;20067;-60
2024/03/04 10:32:17;;;;;;;38.92;29.02;;;12.20;99.90;;;;;;6242738;23;20348;-60
2024/03/04 10:35:04;;;;;;;39.67;27.88;;;12.30;99.90;;;;;;6240254;23;20361;-59
2024/03/04 10:37:51;;;;;;;43.00;28.67;;;12.40;99.90;;;;;;6242821;23;20047;-59
2024/03/04 10:40:37;;;;;;;41.40;28.42;;;12.50;99.90;;;;;;6241953;23;20087;-59
2024/03/04 10:43:23;;;;;;;39.35;28.45;;;12.50;99.90;;;;;;6243187;23;20016;-59
2024/03/04 10:46:10;;;;;;;38.10;28.30;;;12.50;99.90;;;;;;6240602;23;20008;-59
2024/03/04 10:48:57;;;;;;;45.80;30.63;;;12.50;99.90;;;;;;6242812;23;20006;-59
2024/03/04 10:51:43;;;;;;;38.22;27.67;;;12.60;99.90;;;;;;6242333;23;20073;-60
2024/03/04 10:54:29;;;;;;;41.20;28.35;;;12.70;99.90;;;;;;6241152;23;20512;-60
2024/03/04 10:57:34;;;;;;;38.70;29.08;;;12.70;99.90;;;;;;6241793;23;20062;-60
2024/03/04 11:03:15;;;;;;;41.20;27.58;;;12.80;99.90;;;;;;6243554;23;20016;-60
2024/03/04 11:06:03;;;;;;;40.42;27.90;;;12.90;99.90;;;;;;6242963;23;20023;-60
2024/03/04 11:08:54;;;;;;;43.40;29.77;;;13.00;99.90;;;;;;6241494;23;20094;-60
2024/03/04 11:11:47;;;;;;;38.88;27.88;;;13.10;99.90;;;;;;6241180;23;20005;-60
2024/03/04 11:14:40;;;;;;;39.15;28.73;;;13.10;99.90;;;;;;6242103;23;20008;-59
2024/03/04 11:17:32;;;;;;;43.95;32.67;;;13.10;99.90;;;;;;6242155;23;20685;-60
2024/03/04 11:20:20;;;;;;;40.35;29.75;;;13.10;99.90;;;;;;6242859;23;20091;-59
2024/03/04 11:23:06;;;;;;;44.78;30.58;;;13.20;99.90;;;;;;6244398;23;20020;-60
2024/03/04 11:25:53;;;;;;;45.65;33.10;;;13.10;99.90;;;;;;6241133;23;20015;-59
2024/03/04 11:28:39;;;;;;;43.25;30.08;;;13.00;99.90;;;;;;6241206;23;20004;-60
2024/03/04 11:31:26;;;;;;;46.63;30.08;;;12.80;99.90;;;;;;6238616;23;20101;-60
2024/03/04 11:34:13;;;;;;;43.35;31.35;;;12.80;99.90;;;;;;6238299;23;20012;-60
2024/03/04 11:36:59;;;;;;;41.25;31.27;;;12.80;99.90;;;;;;6234813;23;20016;-61
2024/03/04 11:39:46;;;;;;;46.10;31.20;;;12.90;99.90;;;;;;6237975;23;20008;-59
2024/03/04 11:42:38;;;;;;;42.55;31.60;;;12.90;99.90;;;;;;6243551;23;20094;-59
2024/03/04 11:45:35;;;;;;;42.55;29.75;;;13.00;99.90;;;;;;6241824;23;20004;-60
2024/03/04 11:48:28;;;;;;;41.25;31.35;;;13.10;99.90;;;;;;6240711;23;20087;-67
2024/03/04 11:51:44;;;;;;;42.10;31.38;;;13.20;99.90;;;;;;6241867;23;20036;-69
2024/03/04 11:54:36;;;;;;;41.22;31.05;;;13.30;99.90;;;;;;6239627;23;20087;-68
2024/03/04 11:57:24;;;;;;;45.38;32.30;;;13.30;99.90;;;;;;6238672;23;20018;-69
2024/03/04 12:00:15;;;;;;;42.67;30.55;;;13.30;99.90;;;;;;6241425;23;20011;-68
2024/03/04 12:03:04;;;;;;;46.22;33.92;;;13.40;99.90;;;;;;6240420;23;20070;-69
2024/03/04 12:05:50;;;;;;;43.38;31.25;;;13.40;99.90;;;;;;6221639;23;20016;-67
2024/03/04 12:08:36;;;;;;;44.97;33.70;;;13.40;99.90;;;;;;6239620;23;20023;-68
2024/03/04 12:11:22;;;;;;;46.30;30.70;;;13.40;99.90;;;;;;6239506;23;20122;-68
2024/03/04 12:14:08;;;;;;;44.38;31.90;;;13.30;99.90;;;;;;6239465;23;20078;-68
2024/03/04 12:16:54;;;;;;;43.05;30.65;;;13.30;99.90;;;;;;6239471;23;20433;-69
2024/03/04 12:19:57;;;;;;;43.58;31.63;;;13.30;99.90;;;;;;6238350;23;20326;-68
2024/03/04 12:22:43;;;;;;;49.35;32.75;;;13.30;99.90;;;;;;6240312;23;20070;-68
2024/03/04 12:25:29;;;;;;;45.90;33.03;;;13.30;99.90;;;;;;6240408;23;20004;-68
2024/03/04 12:28:17;;;;;;;48.63;33.00;;;13.30;99.90;;;;;;6239032;23;20012;-68
2024/03/04 12:31:11;;;;;;;48.10;33.65;;;13.30;99.90;;;;;;6241338;23;20070;-68
2024/03/04 12:33:57;;;;;;;46.72;34.67;;;13.30;99.90;;;;;;6239561;23;20418;-68
2024/03/04 12:36:43;;;;;;;43.97;31.60;;;13.30;99.90;;;;;;6240220;23;20035;-67
2024/03/04 12:39:31;;;;;;;45.70;33.22;;;13.40;99.90;;;;;;6240142;23;20012;-67
2024/03/04 12:42:17;;;;;;;47.58;31.35;;;13.40;99.90;;;;;;6240505;23;20073;-68
2024/03/04 12:45:04;;;;;;;43.05;28.30;;;13.50;99.90;;;;;;6240526;23;20532;-68
2024/03/04 12:47:51;;;;;;;42.10;29.60;;;13.40;99.80;;;;;;6240394;23;20503;-68
2024/03/04 12:50:40;;;;;;;42.20;29.00;;;13.40;99.70;;;;;;6241630;23;20008;-68
2024/03/04 12:53:26;;;;;;;42.90;29.38;;;13.40;99.80;;;;;;6243463;23;20050;-69
2024/03/04 12:56:12;;;;;;;44.13;31.08;;;13.40;99.70;;;;;;6241062;23;20005;-68
2024/03/04 12:58:58;;;;;;;43.90;29.80;;;13.50;99.80;;;;;;6238285;23;20054;-68
2024/03/04 13:01:44;;;;;;;51.95;30.38;;;13.50;99.80;;;;;;6238792;23;20012;-68
2024/03/04 13:04:30;;;;;;;44.53;30.77;;;13.60;99.70;;;;;;6240683;22;20121;-68
2024/03/04 13:07:16;;;;;;;46.63;30.13;;;13.60;99.50;;;;;;6240206;23;20425;-68
2024/03/04 13:10:06;;;;;;;43.45;30.27;;;13.60;99.60;;;;;;6239964;23;20008;-68
2024/03/04 13:12:52;;;;;;;40.72;28.02;;;13.70;99.50;;;;;;6240284;23;20035;-68
2024/03/04 13:15:44;;;;;;;39.80;28.33;;;13.90;99.50;;;;;;6240356;23;20019;-68
2024/03/04 13:18:31;;;;;;;41.85;29.15;;;14.10;99.50;;;;;;6240807;23;20019;-68
2024/03/04 13:21:17;;;;;;;37.00;26.45;;;14.20;99.10;;;;;;6243837;23;20511;-69
2024/03/04 13:24:03;;;;;;;39.13;27.73;;;14.30;98.80;;;;;;6239243;23;20353;-68
2024/03/04 13:26:49;;;;;;;40.22;26.17;;;14.30;98.80;;;;;;6240801;23;20012;-69
2024/03/04 13:29:35;;;;;;;39.03;26.00;;;14.20;98.60;;;;;;6239656;23;20004;-69
2024/03/04 13:32:21;;;;;;;39.30;27.92;;;14.20;98.50;;;;;;6238610;23;20464;-68
2024/03/04 13:35:09;;;;;;;36.75;26.70;;;14.20;98.40;;;;;;6241467;23;20036;-68
2024/03/04 13:37:54;;;;;;;38.13;25.55;;;14.20;98.40;;;;;;6239707;23;20012;-68
2024/03/04 13:40:40;;;;;;;39.35;26.55;;;14.10;98.30;;;;;;6238652;23;20008;-68
2024/03/04 13:43:26;;;;;;;37.70;27.13;;;14.00;98.40;;;;;;6239212;23;20107;-67
2024/03/04 13:46:12;;;;;;;37.97;25.90;;;14.00;98.40;;;;;;6239290;23;20448;-67
2024/03/04 13:48:58;;;;;;;41.88;28.25;;;14.00;98.50;;;;;;6240122;23;20090;-68
2024/03/04 13:51:44;;;;;;;40.30;26.15;;;13.90;98.30;;;;;;6240567;23;20429;-69
2024/03/04 13:54:33;;;;;;;36.50;24.42;;;13.90;98.40;;;;;;6242266;23;20357;-68
2024/03/04 13:57:19;;;;;;;35.22;25.48;;;13.90;98.40;;;;;;6242972;23;20008;-68
2024/03/04 14:00:12;;;;;;;41.33;28.35;;;13.90;98.30;;;;;;6241489;23;20059;-68
2024/03/04 14:02:58;;;;;;;35.17;25.83;;;13.80;98.30;;;;;;6242239;23;20023;-68
2024/03/04 14:05:44;;;;;;;35.17;24.42;;;13.80;98.30;;;;;;6242198;23;20318;-68
2024/03/04 14:08:30;;;;;;;37.05;24.13;;;13.70;98.20;;;;;;6241848;23;20433;-68
2024/03/04 14:11:16;;;;;;;37.30;23.70;;;13.70;98.20;;;;;;6242839;23;20046;-67
2024/03/04 14:14:02;;;;;;;40.00;28.30;;;13.60;98.20;;;;;;6244100;23;20345;-68